コモドロリバダビア の空港の天気 - METARとTAF

Comodoro Rivadavia Aerodrome ( SAVC / CRD ) - アルゼンチン チュブ州コモドロリバダビア
飛行場実況気象(Metar)
観測時間10/16 05:00 ART (10/16 08:00 UTC)
風向・風速東 1m/s
視程10km以上
天気現象
なし
気温9℃
湿度81%
気圧1020hPa
METARSAVC 160800Z 09002KT CAVOK 09/06 Q1020
過去の天気等 Google飛行場航空写真 Wunderground天気予報

過去48時間のMETAR

飛行場予報(TAF)
発表時間: 10/16 02:00 ART (10/16 05:00 UTC)
予報対象時間: 16日3時 ART ~ 17日3時 ART
風向・風速北東 5m/s
視程10km以上
なし
16日13時 ART ~ 16日17時 ART に 確率 30% で一時的に
天気現象弱いしゅう雨
全天の4割程度の雲 雲底高度 910m
全天の4割程度の雲 雲底高度 1220m
TAF SAVC 160500Z 1606/1706 05010KT CAVOK TX18/1618Z TN07/1610Z
PROB30 TEMPO 1616/1620 -SHRA SCT030 SCT040